Ilyas Efendiyev — 9HES8 — position and weather

sailwx.info

Track history (hours):
 
Tides and Currents Weather Stations Pressure Air Temp Water Temp Dewpoint Dewpoint Depression Visibility Wind Speed Wind Dir Waves Ship Positions

Ilyas Efendiyev

Last reported at 2016-Jul-26 10:25 UTC. Time now 2016-Jul-30 09:14 UTC.
Position N 31°37' E 031°46'.

Length 140 m; draft 4.4 m.

Type: Cargo ship. MMSI: 215901000.

Date/timePositionNaut miles runAvg speedWind from/ knotsBaromVisibWave heightAir tempDewpointWater temp
2016-Jul-26 10:25N 31°37' E 031°46'0 0.0
2016-Jul-26 09:33N 31°37' E 031°46'0 0.0
2016-Jul-26 05:23N 31°37' E 031°46'0 0.0
2016-Jul-26 01:30N 31°37' E 031°46'  
2016-Jul-19 14:33N 37°05' E 012°05'9 8.9
2016-Jul-19 13:32N 37°10' E 011°56'9 9.0
2016-Jul-19 12:31N 37°16' E 011°47'27 9.0
2016-Jul-19 09:33N 37°20' E 011°14'5010.0
2016-Jul-19 04:33N 37°33' E 010°14'270 9.0
2016-Jul-17 22:27N 37°05' E 004°36'11 9.2
2016-Jul-17 21:16N 37°06' E 004°23'7 9.2
2016-Jul-17 20:33N 37°06' E 004°14'9 9.1
2016-Jul-17 19:33N 37°06' E 004°03'9 9.0
2016-Jul-17 18:30N 37°05' E 003°51'  
Track history (hours):
 
Tides and Currents Weather Stations Pressure Air Temp Water Temp Dewpoint Dewpoint Depression Visibility Wind Speed Wind Dir Waves Ship Positions

Ilyas Efendiyev

Last reported at 2016-Jul-26 10:25 UTC. Time now 2016-Jul-30 09:14 UTC.
Position N 31°37' E 031°46'.

Length 140 m; draft 4.4 m.

Type: Cargo ship. MMSI: 215901000.

Date/timePositionNaut miles runAvg speedWind from/ knotsBaromVisibWave heightAir tempDewpointWater temp
2016-Jul-26 10:25N 31°37' E 031°46'0 0.0
2016-Jul-26 09:33N 31°37' E 031°46'0 0.0
2016-Jul-26 05:23N 31°37' E 031°46'0 0.0
2016-Jul-26 01:30N 31°37' E 031°46'  
2016-Jul-19 14:33N 37°05' E 012°05'9 8.9
2016-Jul-19 13:32N 37°10' E 011°56'9 9.0
2016-Jul-19 12:31N 37°16' E 011°47'27 9.0
2016-Jul-19 09:33N 37°20' E 011°14'5010.0
2016-Jul-19 04:33N 37°33' E 010°14'270 9.0
2016-Jul-17 22:27N 37°05' E 004°36'11 9.2
2016-Jul-17 21:16N 37°06' E 004°23'7 9.2
2016-Jul-17 20:33N 37°06' E 004°14'9 9.1
2016-Jul-17 19:33N 37°06' E 004°03'9 9.0
2016-Jul-17 18:30N 37°05' E 003°51'  

Dump ship's entire track history